Pittsville, Virginia
Current Conditions -  °F | °C
As of 12:55 AM on Wednesday 22 Oct 2014 (Local Time) from K0V4 Reporting Station
Overcast Overcast  
Wind Chill: 55°   Ceiling: 4400
Heat Index: 55°   Visibility: 10mi
Dew Point: 46°   Wind: 8mph
Humidity: 73%   Direction: 310°NW
Pressure: 29.93"   Gusts: NA
Location:  36.98°N, 79.46°W
Report Text: K0V4 220455Z AUTO 31007KT 10SM OVC044 13/08 A2993 RMK AO1 T01270080 402290075
Loading
Personal Weather Stations






























Interactive Weather Map
Tropical Storm Tracking
New forecast layout! Learn more

10-Day Weather Forecast

Advertisements
Track Severe Weather on mobile